Time;durP1;ratioP1;P1;durP2;ratioP2;P2;SDS_P1;SDS_P2;PMS_P1;PMS_P2;Temp;Humidity;BMP_temperature;BMP_pressure;BME280_temperature;BME280_humidity;BME280_pressure;Samples;Min_cycle;Max_cycle;Signal;HPM_P1;HPM_P2
2023/07/31 00:03:15;;;;;;;4.13;2.08;;;;;;;;;;10358768;28;20030;-59
2023/07/31 00:08:16;;;;;;;3.75;2.03;;;;;;;;;;10358592;28;20064;-60
2023/07/31 00:13:16;;;;;;;5.07;2.10;;;;;;;;;;10343403;28;21244;-59
2023/07/31 00:18:17;;;;;;;4.77;2.00;;;;;;;;;;10335577;28;20117;-59
2023/07/31 00:23:17;;;;;;;6.10;2.17;;;;;;;;;;10347799;28;20379;-59
2023/07/31 00:28:18;;;;;;;6.30;1.85;;;;;;;;;;10341436;28;20030;-58
2023/07/31 00:33:18;;;;;;;2.97;2.00;;;;;;;;;;10356977;28;20030;-58
2023/07/31 00:38:19;;;;;;;7.82;2.20;;;;;;;;;;10348262;28;20137;-58
2023/07/31 00:43:20;;;;;;;3.97;2.03;;;;;;;;;;10347099;28;20026;-58
2023/07/31 00:48:21;;;;;;;4.82;2.13;;;;;;;;;;10346336;28;20034;-58
2023/07/31 00:53:22;;;;;;;3.38;2.10;;;;;;;;;;10344278;28;20034;-58
2023/07/31 00:58:23;;;;;;;3.03;2.53;;;;;;;;;;10339436;28;20466;-58
2023/07/31 01:03:24;;;;;;;2.90;2.28;;;;;;;;;;10348352;28;20026;-58
2023/07/31 01:08:46;;;;;;;3.47;2.20;;;;;;;;;;10342118;28;20052;-59
2023/07/31 01:13:48;;;;;;;2.80;2.00;;;;;;;;;;10338745;28;20109;-58
2023/07/31 01:18:48;;;;;;;4.72;2.30;;;;;;;;;;10351823;28;20081;-58
2023/07/31 01:24:24;;;;;;;3.10;2.20;;;;;;;;;;10356298;28;20022;-58
2023/07/31 01:29:41;;;;;;;3.20;2.17;;;;;;;;;;10344010;28;20474;-59
2023/07/31 01:34:43;;;;;;;4.30;2.72;;;;;;;;;;10350931;28;20037;-58
2023/07/31 01:39:43;;;;;;;5.03;2.42;;;;;;;;;;10317394;28;20050;-58
2023/07/31 01:44:44;;;;;;;6.63;2.30;;;;;;;;;;10323521;28;20395;-59
2023/07/31 01:49:45;;;;;;;4.57;2.38;;;;;;;;;;10318219;28;20648;-59
2023/07/31 01:54:45;;;;;;;5.22;2.45;;;;;;;;;;10313819;28;20065;-58
2023/07/31 01:59:46;;;;;;;3.60;2.17;;;;;;;;;;10315494;28;20035;-58
2023/07/31 02:04:47;;;;;;;4.82;2.65;;;;;;;;;;10315747;28;20034;-58
2023/07/31 02:09:47;;;;;;;3.78;2.25;;;;;;;;;;10315675;28;20061;-58
2023/07/31 02:14:48;;;;;;;3.05;2.17;;;;;;;;;;10315179;28;20030;-58
2023/07/31 02:19:48;;;;;;;8.00;2.65;;;;;;;;;;10312855;28;20201;-58
2023/07/31 02:24:49;;;;;;;2.92;2.20;;;;;;;;;;10313870;28;20042;-58
2023/07/31 02:29:50;;;;;;;4.20;2.58;;;;;;;;;;10312563;28;20093;-58
2023/07/31 02:34:50;;;;;;;3.30;2.42;;;;;;;;;;10335906;28;20035;-58
2023/07/31 02:39:51;;;;;;;2.72;2.50;;;;;;;;;;10363545;28;20091;-58
2023/07/31 02:44:55;;;;;;;4.60;2.65;;;;;;;;;;10343881;28;20084;-58
2023/07/31 02:49:56;;;;;;;3.33;2.22;;;;;;;;;;10354893;28;20036;-58
2023/07/31 02:54:57;;;;;;;2.75;2.47;;;;;;;;;;10346737;28;20369;-58
2023/07/31 02:59:58;;;;;;;5.28;2.40;;;;;;;;;;10353194;28;20017;-58
2023/07/31 03:04:59;;;;;;;3.13;2.50;;;;;;;;;;10362017;28;20501;-58
2023/07/31 03:09:59;;;;;;;4.25;2.60;;;;;;;;;;10370933;28;20029;-58
2023/07/31 03:15:00;;;;;;;2.75;2.55;;;;;;;;;;10366497;28;20022;-57
2023/07/31 03:20:00;;;;;;;2.95;2.50;;;;;;;;;;10350831;28;20046;-58
2023/07/31 03:25:03;;;;;;;5.47;2.50;;;;;;;;;;10336173;28;20089;-58
2023/07/31 03:30:04;;;;;;;3.33;2.60;;;;;;;;;;10350742;28;20038;-57
2023/07/31 03:35:05;;;;;;;5.60;2.42;;;;;;;;;;10355057;28;20062;-57
2023/07/31 03:40:06;;;;;;;4.45;2.60;;;;;;;;;;10354904;28;20057;-58
2023/07/31 03:45:08;;;;;;;5.05;2.67;;;;;;;;;;10359650;28;20062;-58
2023/07/31 03:50:09;;;;;;;3.67;2.60;;;;;;;;;;10349427;28;20483;-58
2023/07/31 03:55:09;;;;;;;2.92;2.35;;;;;;;;;;10335964;28;20069;-57
2023/07/31 04:00:11;;;;;;;3.25;2.25;;;;;;;;;;10328096;28;20520;-57
2023/07/31 04:05:11;;;;;;;4.90;2.40;;;;;;;;;;10333296;28;20029;-57
2023/07/31 04:10:12;;;;;;;4.45;2.45;;;;;;;;;;10366442;28;20038;-58
2023/07/31 04:15:12;;;;;;;3.95;2.60;;;;;;;;;;10367183;28;20026;-58
2023/07/31 04:20:13;;;;;;;3.65;2.83;;;;;;;;;;10357792;28;20465;-58
2023/07/31 04:25:13;;;;;;;3.03;2.70;;;;;;;;;;10361120;28;20041;-58
2023/07/31 04:30:14;;;;;;;2.45;2.25;;;;;;;;;;10372253;28;20030;-58
2023/07/31 04:35:15;;;;;;;3.10;2.67;;;;;;;;;;10335593;28;20618;-58
2023/07/31 04:40:16;;;;;;;4.72;2.70;;;;;;;;;;10360836;28;20037;-58
2023/07/31 04:45:17;;;;;;;2.45;2.25;;;;;;;;;;10349961;28;20038;-58
2023/07/31 04:50:17;;;;;;;3.85;2.40;;;;;;;;;;10352930;28;20034;-58
2023/07/31 04:55:18;;;;;;;6.18;2.53;;;;;;;;;;10358992;28;20541;-58
2023/07/31 05:00:18;;;;;;;2.55;2.13;;;;;;;;;;10370650;28;20029;-58
2023/07/31 05:05:19;;;;;;;2.42;2.10;;;;;;;;;;10367410;28;21406;-59
2023/07/31 05:10:20;;;;;;;4.35;2.30;;;;;;;;;;10369263;28;21694;-58
2023/07/31 05:15:20;;;;;;;2.30;2.10;;;;;;;;;;10363666;28;20159;-59
2023/07/31 05:20:21;;;;;;;4.55;2.53;;;;;;;;;;10360051;28;20030;-58
2023/07/31 05:25:22;;;;;;;3.05;1.90;;;;;;;;;;10354576;28;20475;-61
2023/07/31 05:30:22;;;;;;;5.97;1.95;;;;;;;;;;10346690;28;20477;-58
2023/07/31 05:35:23;;;;;;;6.93;2.08;;;;;;;;;;10355976;28;20033;-57
2023/07/31 05:40:24;;;;;;;7.97;2.47;;;;;;;;;;10360429;28;20530;-57
2023/07/31 05:45:25;;;;;;;9.75;2.50;;;;;;;;;;10351930;28;20037;-57
2023/07/31 05:50:26;;;;;;;4.00;2.42;;;;;;;;;;10360741;28;20032;-56
2023/07/31 05:55:27;;;;;;;6.05;2.40;;;;;;;;;;10346053;28;20371;-56
2023/07/31 06:00:27;;;;;;;14.90;2.28;;;;;;;;;;10360808;28;20133;-57
2023/07/31 06:05:29;;;;;;;4.90;2.08;;;;;;;;;;10360418;28;20057;-57
2023/07/31 06:10:30;;;;;;;8.13;2.20;;;;;;;;;;10366076;28;20057;-57
2023/07/31 06:15:31;;;;;;;7.38;2.22;;;;;;;;;;10349128;28;20052;-57
2023/07/31 06:20:31;;;;;;;7.15;2.45;;;;;;;;;;10361891;28;20278;-57
2023/07/31 06:25:32;;;;;;;3.85;2.30;;;;;;;;;;10364206;28;20386;-57
2023/07/31 06:30:32;;;;;;;2.60;1.95;;;;;;;;;;10330764;28;20030;-57
2023/07/31 06:35:35;;;;;;;9.77;2.38;;;;;;;;;;10353734;28;20093;-57
2023/07/31 06:40:36;;;;;;;5.95;2.33;;;;;;;;;;10351216;28;20185;-57
2023/07/31 06:45:37;;;;;;;4.55;1.90;;;;;;;;;;10341884;28;20218;-57
2023/07/31 06:50:38;;;;;;;6.35;2.30;;;;;;;;;;10341814;28;20027;-57
2023/07/31 06:55:38;;;;;;;4.43;2.47;;;;;;;;;;10354923;28;20030;-57
2023/07/31 07:00:39;;;;;;;3.08;2.03;;;;;;;;;;10338381;28;20022;-57
2023/07/31 07:05:40;;;;;;;3.72;2.00;;;;;;;;;;10343846;28;20041;-57
2023/07/31 07:10:40;;;;;;;4.68;2.05;;;;;;;;;;10362707;28;20359;-56
2023/07/31 07:15:41;;;;;;;3.60;2.40;;;;;;;;;;10344858;28;20517;-57
2023/07/31 07:20:52;;;;;;;7.07;2.50;;;;;;;;;;10348827;28;20064;-57
2023/07/31 07:25:53;;;;;;;6.75;2.10;;;;;;;;;;10355610;28;20453;-57
2023/07/31 07:30:54;;;;;;;2.08;1.52;;;;;;;;;;10340556;28;20015;-57
2023/07/31 07:35:54;;;;;;;5.97;1.95;;;;;;;;;;10342801;28;20537;-57
2023/07/31 07:40:55;;;;;;;4.13;1.92;;;;;;;;;;10367514;28;20025;-56
2023/07/31 07:45:56;;;;;;;4.50;2.30;;;;;;;;;;10344736;28;20041;-57
2023/07/31 07:50:56;;;;;;;3.58;1.75;;;;;;;;;;10360217;28;20053;-56
2023/07/31 07:55:57;;;;;;;4.72;1.60;;;;;;;;;;10373521;28;20037;-56
2023/07/31 08:00:58;;;;;;;6.13;1.90;;;;;;;;;;10348524;28;20481;-56
2023/07/31 08:06:00;;;;;;;4.40;1.80;;;;;;;;;;10347236;28;20081;-56
2023/07/31 08:11:00;;;;;;;3.50;1.70;;;;;;;;;;10359153;28;20029;-57
2023/07/31 08:16:01;;;;;;;5.82;1.90;;;;;;;;;;10359664;28;20424;-56
2023/07/31 08:21:04;;;;;;;3.28;1.58;;;;;;;;;;10349117;28;20023;-56
2023/07/31 08:26:05;;;;;;;4.88;1.58;;;;;;;;;;10350222;28;20030;-56
2023/07/31 08:31:06;;;;;;;4.03;1.55;;;;;;;;;;10345408;28;20434;-56
2023/07/31 08:36:07;;;;;;;5.00;1.60;;;;;;;;;;10347092;28;20089;-57
2023/07/31 08:41:07;;;;;;;3.10;1.63;;;;;;;;;;10367734;28;20278;-56
2023/07/31 08:46:08;;;;;;;3.85;1.58;;;;;;;;;;10345991;28;20232;-57
2023/07/31 08:51:09;;;;;;;2.72;1.65;;;;;;;;;;10331152;28;20026;-57
2023/07/31 08:56:12;;;;;;;2.92;1.58;;;;;;;;;;10372077;28;20060;-57
2023/07/31 09:01:13;;;;;;;3.40;1.70;;;;;;;;;;10341592;28;20040;-56
2023/07/31 09:06:17;;;;;;;4.03;1.60;;;;;;;;;;10341216;28;20156;-57
2023/07/31 09:11:18;;;;;;;2.30;1.60;;;;;;;;;;10340305;28;20026;-57
2023/07/31 09:16:30;;;;;;;3.67;1.20;;;;;;;;;;10342414;28;20021;-57
2023/07/31 09:21:30;;;;;;;4.47;1.58;;;;;;;;;;10345850;28;20125;-57
2023/07/31 09:26:36;;;;;;;1.40;1.30;;;;;;;;;;10361941;28;20042;-57
2023/07/31 09:31:42;;;;;;;3.70;1.50;;;;;;;;;;10360254;28;20169;-57
2023/07/31 09:36:48;;;;;;;2.53;1.52;;;;;;;;;;10356735;28;20057;-57
2023/07/31 09:41:56;;;;;;;2.08;1.60;;;;;;;;;;10350998;28;20032;-57
2023/07/31 09:46:56;;;;;;;2.30;1.30;;;;;;;;;;10344034;28;20045;-57
2023/07/31 09:51:57;;;;;;;3.00;1.33;;;;;;;;;;10331411;28;20038;-57
2023/07/31 09:57:00;;;;;;;3.90;1.50;;;;;;;;;;10356500;28;20094;-57
2023/07/31 10:02:01;;;;;;;2.88;1.50;;;;;;;;;;10343472;28;20062;-57
2023/07/31 10:07:03;;;;;;;4.18;1.65;;;;;;;;;;10350016;28;20487;-57
2023/07/31 10:12:09;;;;;;;5.25;1.50;;;;;;;;;;10336171;28;20022;-57
2023/07/31 10:17:11;;;;;;;1.52;1.20;;;;;;;;;;10344757;28;20405;-56
2023/07/31 10:22:13;;;;;;;4.45;1.58;;;;;;;;;;10325337;28;20026;-56
2023/07/31 10:27:13;;;;;;;2.10;1.15;;;;;;;;;;10346777;28;20030;-56
2023/07/31 10:32:15;;;;;;;3.22;1.45;;;;;;;;;;10325079;28;20026;-57
2023/07/31 10:37:29;;;;;;;1.65;1.42;;;;;;;;;;10336003;28;20332;-56
2023/07/31 10:42:33;;;;;;;3.42;1.40;;;;;;;;;;10350562;28;20040;-57
2023/07/31 10:48:01;;;;;;;1.73;1.45;;;;;;;;;;10341718;28;20434;-57
2023/07/31 10:53:01;;;;;;;;;;;;;;;;;;10346899;28;20022;-57
2023/07/31 10:58:11;;;;;;;2.17;1.40;;;;;;;;;;10350138;28;20338;-57
2023/07/31 11:03:22;;;;;;;6.25;1.27;;;;;;;;;;10342365;28;20094;-57
2023/07/31 11:08:28;;;;;;;2.13;1.17;;;;;;;;;;10347298;28;20116;-57
2023/07/31 11:13:39;;;;;;;1.38;1.27;;;;;;;;;;10348791;28;20104;-57
2023/07/31 11:18:42;;;;;;;2.22;1.35;;;;;;;;;;10311201;28;20390;-57
2023/07/31 11:23:56;;;;;;;4.90;1.30;;;;;;;;;;10353557;28;20030;-57
2023/07/31 11:28:56;;;;;;;5.72;1.30;;;;;;;;;;10326692;28;20485;-57
2023/07/31 11:34:06;;;;;;;1.55;1.40;;;;;;;;;;10352564;28;20046;-56
2023/07/31 11:39:10;;;;;;;2.38;1.48;;;;;;;;;;10338076;28;20088;-57
2023/07/31 11:44:11;;;;;;;2.70;1.40;;;;;;;;;;10359975;28;20060;-57
2023/07/31 11:49:12;;;;;;;4.22;1.33;;;;;;;;;;10365791;28;20504;-56
2023/07/31 11:54:13;;;;;;;3.45;1.90;;;;;;;;;;10340908;28;20478;-57
2023/07/31 11:59:14;;;;;;;1.88;1.40;;;;;;;;;;10360441;28;20442;-56
2023/07/31 12:04:15;;;;;;;1.88;1.40;;;;;;;;;;10354321;28;20045;-57
2023/07/31 12:09:15;;;;;;;2.00;1.38;;;;;;;;;;10326961;28;20389;-56
2023/07/31 12:14:25;;;;;;;3.22;1.70;;;;;;;;;;10341288;28;20122;-56
2023/07/31 12:19:29;;;;;;;5.72;1.50;;;;;;;;;;10338181;28;20038;-57
2023/07/31 12:24:30;;;;;;;3.33;1.60;;;;;;;;;;10349919;28;20031;-56
2023/07/31 12:29:38;;;;;;;2.28;1.50;;;;;;;;;;10354977;28;20030;-57
2023/07/31 12:34:42;;;;;;;;;;;;;;;;;;10348935;28;20021;-57
2023/07/31 12:39:43;;;;;;;1.70;1.60;;;;;;;;;;10365337;28;19926;-57
2023/07/31 12:44:43;;;;;;;5.28;2.00;;;;;;;;;;10345871;28;20045;-57
2023/07/31 12:49:44;;;;;;;1.85;1.60;;;;;;;;;;10343263;28;20034;-56
2023/07/31 12:54:44;;;;;;;1.50;1.40;;;;;;;;;;10345260;28;20072;-57
2023/07/31 12:59:45;;;;;;;2.13;1.50;;;;;;;;;;10354982;28;20034;-56
2023/07/31 13:04:45;;;;;;;3.28;1.65;;;;;;;;;;10340757;28;20391;-56
2023/07/31 13:09:46;;;;;;;4.00;1.90;;;;;;;;;;10360831;28;20390;-57
2023/07/31 13:14:47;;;;;;;6.05;1.67;;;;;;;;;;10337492;28;20035;-57
2023/07/31 13:19:47;;;;;;;2.42;1.60;;;;;;;;;;10371332;28;20285;-56
2023/07/31 13:24:48;;;;;;;5.82;1.38;;;;;;;;;;10346646;28;20108;-57
2023/07/31 13:29:49;;;;;;;2.83;1.50;;;;;;;;;;10359988;28;20077;-57
2023/07/31 13:34:49;;;;;;;1.70;1.48;;;;;;;;;;10370842;28;20113;-57
2023/07/31 13:39:50;;;;;;;2.13;1.70;;;;;;;;;;10371922;28;20048;-57
2023/07/31 13:44:50;;;;;;;1.60;1.50;;;;;;;;;;10360422;28;20478;-58
2023/07/31 13:49:51;;;;;;;2.13;1.70;;;;;;;;;;10368105;28;20393;-57
2023/07/31 13:54:51;;;;;;;9.80;2.83;;;;;;;;;;10367044;28;20499;-57
2023/07/31 13:59:52;;;;;;;9.93;3.60;;;;;;;;;;10364733;28;20038;-57
2023/07/31 14:04:53;;;;;;;9.18;3.78;;;;;;;;;;10358409;28;20499;-57
2023/07/31 14:09:53;;;;;;;13.30;4.47;;;;;;;;;;10340785;28;20402;-56
2023/07/31 14:14:54;;;;;;;9.48;3.42;;;;;;;;;;10336589;28;20038;-57
2023/07/31 14:19:54;;;;;;;11.48;3.55;;;;;;;;;;10356524;28;20394;-56
2023/07/31 14:24:55;;;;;;;10.25;3.35;;;;;;;;;;10358564;28;20394;-57
2023/07/31 14:29:55;;;;;;;8.05;3.50;;;;;;;;;;10354905;28;20378;-57
2023/07/31 14:34:56;;;;;;;12.18;3.63;;;;;;;;;;10357331;28;20056;-57
2023/07/31 14:39:57;;;;;;;7.30;2.78;;;;;;;;;;10351127;28;20052;-56
2023/07/31 14:44:57;;;;;;;7.80;2.70;;;;;;;;;;10339807;28;20022;-57
2023/07/31 14:49:59;;;;;;;6.15;2.80;;;;;;;;;;10349182;28;20022;-56
2023/07/31 14:55:00;;;;;;;4.82;2.50;;;;;;;;;;10334363;28;20394;-57
2023/07/31 15:00:01;;;;;;;7.25;3.03;;;;;;;;;;10330450;28;20026;-57
2023/07/31 15:05:01;;;;;;;3.80;2.38;;;;;;;;;;10341645;28;20042;-57
2023/07/31 15:10:03;;;;;;;6.72;2.80;;;;;;;;;;10357885;28;20032;-57
2023/07/31 15:15:05;;;;;;;5.93;2.50;;;;;;;;;;10366791;28;20080;-57
2023/07/31 15:20:06;;;;;;;5.40;2.85;;;;;;;;;;10349855;28;20145;-57
2023/07/31 15:25:08;;;;;;;7.72;2.83;;;;;;;;;;10337253;28;20034;-56
2023/07/31 15:30:09;;;;;;;2.97;2.20;;;;;;;;;;10343778;28;20054;-56
2023/07/31 15:35:10;;;;;;;5.30;2.50;;;;;;;;;;10348328;28;20334;-56
2023/07/31 15:40:10;;;;;;;6.28;2.30;;;;;;;;;;10370320;28;20057;-57
2023/07/31 15:45:11;;;;;;;3.72;2.35;;;;;;;;;;10363441;28;20382;-56
2023/07/31 15:50:12;;;;;;;4.55;2.47;;;;;;;;;;10362132;28;20117;-58
2023/07/31 15:55:12;;;;;;;2.63;1.80;;;;;;;;;;10363861;28;20095;-58
2023/07/31 16:00:13;;;;;;;9.45;1.85;;;;;;;;;;10365454;28;20022;-56
2023/07/31 16:05:13;;;;;;;2.53;2.13;;;;;;;;;;10364908;28;20022;-58
2023/07/31 16:10:14;;;;;;;3.85;2.15;;;;;;;;;;10374311;28;20022;-56
2023/07/31 16:15:15;;;;;;;3.92;2.08;;;;;;;;;;10371658;28;20032;-56
2023/07/31 16:20:16;;;;;;;3.90;1.92;;;;;;;;;;10372675;28;20022;-56
2023/07/31 16:25:16;;;;;;;4.25;1.90;;;;;;;;;;10363432;28;20056;-56
2023/07/31 16:30:17;;;;;;;1.77;1.65;;;;;;;;;;10347129;28;20027;-56
2023/07/31 16:35:18;;;;;;;2.35;1.92;;;;;;;;;;10334875;28;20427;-56
2023/07/31 16:40:18;;;;;;;3.05;1.88;;;;;;;;;;10351661;28;20037;-56
2023/07/31 16:45:19;;;;;;;3.38;1.70;;;;;;;;;;10351342;28;20034;-56
2023/07/31 16:50:20;;;;;;;2.17;1.70;;;;;;;;;;10356003;28;20022;-56
2023/07/31 16:55:20;;;;;;;2.25;1.80;;;;;;;;;;10349861;28;20042;-56
2023/07/31 17:00:21;;;;;;;3.00;1.88;;;;;;;;;;10346591;28;20412;-56
2023/07/31 17:05:23;;;;;;;2.08;1.65;;;;;;;;;;10352824;28;20033;-56
2023/07/31 17:10:23;;;;;;;2.83;1.70;;;;;;;;;;10357473;28;20067;-56
2023/07/31 17:15:24;;;;;;;3.60;1.80;;;;;;;;;;10356727;28;20026;-55
2023/07/31 17:20:24;;;;;;;1.77;1.67;;;;;;;;;;10351784;28;20056;-56
2023/07/31 17:25:25;;;;;;;4.82;2.00;;;;;;;;;;10358305;28;20033;-58
2023/07/31 17:30:26;;;;;;;2.25;1.67;;;;;;;;;;10367867;28;20381;-56
2023/07/31 17:35:26;;;;;;;5.07;1.80;;;;;;;;;;10352607;28;20390;-56
2023/07/31 17:40:27;;;;;;;3.35;2.00;;;;;;;;;;10355913;28;20028;-56
2023/07/31 17:45:27;;;;;;;3.95;2.30;;;;;;;;;;10361399;28;20272;-55
2023/07/31 17:50:29;;;;;;;8.27;2.63;;;;;;;;;;10336768;28;20363;-57
2023/07/31 17:55:29;;;;;;;5.28;2.22;;;;;;;;;;10353096;28;20046;-57
2023/07/31 18:00:30;;;;;;;3.50;1.98;;;;;;;;;;10364593;28;20034;-57
2023/07/31 18:05:31;;;;;;;5.43;2.60;;;;;;;;;;10352336;28;20040;-57
2023/07/31 18:10:33;;;;;;;5.72;1.95;;;;;;;;;;10369942;28;20041;-57
2023/07/31 18:15:34;;;;;;;7.15;1.63;;;;;;;;;;10365018;28;20393;-58
2023/07/31 18:20:36;;;;;;;4.90;2.00;;;;;;;;;;10363278;28;20017;-58
2023/07/31 18:25:39;;;;;;;4.68;1.92;;;;;;;;;;10360131;28;20072;-58
2023/07/31 18:30:40;;;;;;;2.45;1.58;;;;;;;;;;10358218;28;20034;-58
2023/07/31 18:35:40;;;;;;;4.30;2.10;;;;;;;;;;10357941;28;20426;-58
2023/07/31 18:40:41;;;;;;;5.53;1.70;;;;;;;;;;10366590;28;20030;-57
2023/07/31 18:45:41;;;;;;;2.88;1.50;;;;;;;;;;10354944;28;20041;-57
2023/07/31 18:50:44;;;;;;;3.60;2.15;;;;;;;;;;10342526;28;20029;-57
2023/07/31 18:55:45;;;;;;;2.65;1.98;;;;;;;;;;10340807;28;20410;-57
2023/07/31 19:00:45;;;;;;;3.17;2.17;;;;;;;;;;10359079;28;20019;-57
2023/07/31 19:05:46;;;;;;;3.95;2.08;;;;;;;;;;10365631;28;20477;-57
2023/07/31 19:10:47;;;;;;;4.50;2.30;;;;;;;;;;10356719;28;20367;-58
2023/07/31 19:15:48;;;;;;;5.38;1.80;;;;;;;;;;10339922;28;20034;-57
2023/07/31 19:20:49;;;;;;;2.33;1.70;;;;;;;;;;10346355;28;20445;-58
2023/07/31 19:25:50;;;;;;;2.20;1.95;;;;;;;;;;10353959;28;20091;-57
2023/07/31 19:30:50;;;;;;;3.97;1.98;;;;;;;;;;10361145;28;20472;-57
2023/07/31 19:35:59;;;;;;;3.00;1.85;;;;;;;;;;10358434;28;20038;-57
2023/07/31 19:41:03;;;;;;;2.28;1.85;;;;;;;;;;10359899;28;20514;-57
2023/07/31 19:46:03;;;;;;;3.25;2.10;;;;;;;;;;10356511;28;20188;-57
2023/07/31 19:51:04;;;;;;;3.28;2.20;;;;;;;;;;10357478;28;20128;-57
2023/07/31 19:56:07;;;;;;;2.30;1.70;;;;;;;;;;10357466;28;20394;-57
2023/07/31 20:01:10;;;;;;;1.80;1.58;;;;;;;;;;10370163;28;20037;-57
2023/07/31 20:06:10;;;;;;;3.50;1.98;;;;;;;;;;10355321;28;20041;-58
2023/07/31 20:11:11;;;;;;;2.08;1.80;;;;;;;;;;10327946;28;20030;-58
2023/07/31 20:16:11;;;;;;;5.85;2.00;;;;;;;;;;10348025;28;20053;-58
2023/07/31 20:21:12;;;;;;;3.22;2.15;;;;;;;;;;10348342;28;20029;-58
2023/07/31 20:26:13;;;;;;;4.90;1.67;;;;;;;;;;10360361;28;20041;-57
2023/07/31 20:31:13;;;;;;;4.38;1.58;;;;;;;;;;10360134;28;20041;-57
2023/07/31 20:36:14;;;;;;;7.32;2.25;;;;;;;;;;10358701;28;20097;-57
2023/07/31 20:41:15;;;;;;;2.92;1.80;;;;;;;;;;10353652;28;20030;-59
2023/07/31 20:46:15;;;;;;;2.05;1.83;;;;;;;;;;10355049;28;20046;-58
2023/07/31 20:51:16;;;;;;;3.47;2.22;;;;;;;;;;10363549;28;20022;-59
2023/07/31 20:56:17;;;;;;;5.78;2.13;;;;;;;;;;10344788;28;20461;-58
2023/07/31 21:01:17;;;;;;;3.72;2.00;;;;;;;;;;10343129;28;20026;-59
2023/07/31 21:06:19;;;;;;;4.55;1.80;;;;;;;;;;10342297;28;20034;-57
2023/07/31 21:11:20;;;;;;;4.05;1.90;;;;;;;;;;10350798;28;20469;-59
2023/07/31 21:16:20;;;;;;;2.60;1.77;;;;;;;;;;10356636;28;20031;-57
2023/07/31 21:21:21;;;;;;;2.55;1.67;;;;;;;;;;10368527;28;20029;-58
2023/07/31 21:26:21;;;;;;;6.60;2.15;;;;;;;;;;10356576;28;20381;-57
2023/07/31 21:31:22;;;;;;;3.45;2.05;;;;;;;;;;10360616;28;20057;-57
2023/07/31 21:36:23;;;;;;;4.93;1.95;;;;;;;;;;10311444;28;1122695;-57
2023/07/31 21:41:24;;;;;;;4.30;2.00;;;;;;;;;;10368351;28;20039;-57
2023/07/31 21:46:24;;;;;;;12.20;2.05;;;;;;;;;;10338373;28;20474;-57
2023/07/31 21:51:25;;;;;;;3.08;2.05;;;;;;;;;;10363458;28;20352;-57
2023/07/31 21:56:26;;;;;;;3.75;1.90;;;;;;;;;;10343678;28;20018;-56
2023/07/31 22:01:26;;;;;;;7.40;2.30;;;;;;;;;;10356692;28;20032;-58
2023/07/31 22:06:27;;;;;;;3.53;1.80;;;;;;;;;;10342879;28;20073;-57
2023/07/31 22:11:27;;;;;;;2.83;2.15;;;;;;;;;;10345774;28;20052;-56
2023/07/31 22:16:28;;;;;;;2.08;1.70;;;;;;;;;;10353506;28;20018;-57
2023/07/31 22:21:28;;;;;;;3.20;2.10;;;;;;;;;;10343151;28;20022;-57
2023/07/31 22:26:29;;;;;;;4.30;2.20;;;;;;;;;;10342593;28;20332;-58
2023/07/31 22:31:30;;;;;;;3.38;2.22;;;;;;;;;;10355801;28;20029;-57
2023/07/31 22:36:30;;;;;;;7.22;2.03;;;;;;;;;;10342545;28;20034;-56
2023/07/31 22:41:31;;;;;;;4.00;2.13;;;;;;;;;;10368739;28;20042;-56
2023/07/31 22:46:31;;;;;;;2.58;2.17;;;;;;;;;;10348415;28;20029;-55
2023/07/31 22:51:33;;;;;;;3.08;2.30;;;;;;;;;;10347755;28;20382;-55
2023/07/31 22:56:33;;;;;;;3.15;2.30;;;;;;;;;;10341963;28;20080;-57
2023/07/31 23:01:34;;;;;;;7.40;2.80;;;;;;;;;;10346592;28;20022;-57
2023/07/31 23:06:34;;;;;;;2.80;2.38;;;;;;;;;;10340532;28;20026;-57
2023/07/31 23:11:35;;;;;;;3.47;2.47;;;;;;;;;;10363251;28;20049;-57
2023/07/31 23:16:35;;;;;;;5.47;2.92;;;;;;;;;;10329957;28;20041;-57
2023/07/31 23:21:36;;;;;;;3.78;2.70;;;;;;;;;;10354972;28;20585;-57
2023/07/31 23:26:36;;;;;;;4.93;2.83;;;;;;;;;;10348560;28;20045;-57
2023/07/31 23:31:37;;;;;;;6.68;2.95;;;;;;;;;;10351871;28;20026;-58
2023/07/31 23:36:38;;;;;;;2.85;2.58;;;;;;;;;;10345156;28;20042;-57
2023/07/31 23:41:38;;;;;;;2.95;2.70;;;;;;;;;;10369836;28;20033;-58
2023/07/31 23:46:45;;;;;;;6.32;2.80;;;;;;;;;;10365373;28;20030;-58
2023/07/31 23:51:46;;;;;;;3.03;2.70;;;;;;;;;;10365048;28;20022;-57
2023/07/31 23:56:47;;;;;;;6.90;3.10;;;;;;;;;;10352357;28;20026;-57
